createdAt,value
2022-12-14T00:01:42.534Z,15.23
2022-12-14T00:03:52.925Z,15.23
2022-12-14T00:05:57.451Z,22.38
2022-12-14T00:08:01.442Z,12.68
2022-12-14T00:10:07.794Z,14.57
2022-12-14T00:12:11.961Z,20.27
2022-12-14T00:14:16.435Z,19.80
2022-12-14T00:16:20.672Z,21.45
2022-12-14T00:18:24.907Z,12.80
2022-12-14T00:20:29.355Z,15.38
2022-12-14T00:22:32.898Z,14.73
2022-12-14T00:24:36.620Z,16.25
2022-12-14T00:26:41.602Z,12.70
2022-12-14T00:28:46.866Z,12.60
2022-12-14T00:30:53.911Z,15.38
2022-12-14T00:33:00.348Z,12.95
2022-12-14T00:35:03.964Z,11.77
2022-12-14T00:37:07.698Z,14.95
2022-12-14T00:39:11.323Z,10.85
2022-12-14T00:41:15.511Z,13.65
2022-12-14T00:43:20.748Z,11.82
2022-12-14T00:45:25.396Z,11.43
2022-12-14T00:47:28.865Z,12.40
2022-12-14T00:49:32.427Z,13.13
2022-12-14T00:51:36.041Z,14.68
2022-12-14T00:53:39.454Z,14.55
2022-12-14T00:55:49.323Z,19.00
2022-12-14T00:57:53.596Z,17.33
2022-12-14T00:59:58.658Z,12.35
2022-12-14T01:02:02.531Z,16.05
2022-12-14T01:04:19.533Z,11.52
2022-12-14T01:06:24.453Z,9.75
2022-12-14T01:08:35.730Z,8.10
2022-12-14T01:10:41.351Z,13.20
2022-12-14T01:12:45.212Z,7.00
2022-12-14T01:14:49.991Z,13.73
2022-12-14T01:16:54.963Z,18.05
2022-12-14T01:18:58.495Z,11.63
2022-12-14T01:21:13.828Z,11.32
2022-12-14T01:23:18.218Z,11.32
2022-12-14T01:25:22.205Z,11.15
2022-12-14T01:27:26.096Z,13.73
2022-12-14T01:29:29.709Z,11.80
2022-12-14T01:31:36.182Z,10.95
2022-12-14T01:33:41.762Z,9.18
2022-12-14T01:35:45.269Z,11.98
2022-12-14T01:37:48.978Z,9.52
2022-12-14T01:39:52.911Z,11.10
2022-12-14T01:41:56.778Z,10.55
2022-12-14T01:44:02.718Z,7.80
2022-12-14T01:46:06.455Z,11.40
2022-12-14T01:48:15.532Z,8.30
2022-12-14T01:50:29.379Z,9.50
2022-12-14T01:52:38.318Z,9.18
2022-12-14T01:54:48.759Z,6.88
2022-12-14T01:56:53.947Z,6.70
2022-12-14T01:59:03.370Z,8.95
2022-12-14T02:01:07.264Z,10.85
2022-12-14T02:03:14.051Z,8.82
2022-12-14T02:05:19.952Z,6.18
2022-12-14T02:07:26.925Z,7.18
2022-12-14T02:09:35.555Z,7.15
2022-12-14T02:11:48.420Z,4.25
2022-12-14T02:13:52.073Z,5.65
2022-12-14T02:15:55.861Z,13.93
2022-12-14T02:17:59.611Z,5.32
2022-12-14T02:20:04.424Z,10.40
2022-12-14T02:22:38.247Z,8.40
2022-12-14T02:25:08.426Z,7.60
2022-12-14T02:27:17.017Z,6.35
2022-12-14T02:29:34.695Z,5.50
2022-12-14T02:31:49.140Z,7.20
2022-12-14T02:33:59.400Z,6.38
2022-12-14T02:36:12.588Z,7.05
2022-12-14T02:38:39.288Z,8.35
2022-12-14T02:40:52.684Z,6.38
2022-12-14T02:45:13.701Z,11.50
2022-12-14T02:47:26.389Z,5.18
2022-12-14T02:49:49.239Z,9.38
2022-12-14T02:51:59.665Z,14.48
2022-12-14T02:54:08.563Z,7.22
2022-12-14T02:56:16.499Z,5.45
2022-12-14T02:58:25.539Z,6.78
2022-12-14T03:00:33.684Z,5.55
2022-12-14T03:02:40.337Z,7.65
2022-12-14T03:04:49.168Z,7.75
2022-12-14T03:07:02.857Z,5.95
2022-12-14T03:09:11.285Z,5.07
2022-12-14T03:11:19.999Z,8.07
2022-12-14T03:13:29.033Z,5.97
2022-12-14T03:15:38.295Z,7.07
2022-12-14T03:17:43.854Z,11.98
2022-12-14T03:19:56.083Z,8.20
2022-12-14T03:22:01.791Z,9.98
2022-12-14T03:24:12.643Z,8.48
2022-12-14T03:26:22.815Z,11.20
2022-12-14T03:28:31.959Z,8.10
2022-12-14T03:30:59.562Z,5.93
2022-12-14T03:33:09.234Z,4.82
2022-12-14T03:35:19.105Z,6.40
2022-12-14T03:37:29.328Z,8.93
2022-12-14T03:39:36.018Z,4.50
2022-12-14T03:41:48.737Z,6.72
2022-12-14T03:44:05.912Z,5.57
2022-12-14T03:46:16.319Z,5.80
2022-12-14T03:48:32.510Z,3.50
2022-12-14T03:50:41.407Z,8.55
2022-12-14T03:52:55.136Z,6.20
2022-12-14T03:55:06.969Z,5.35
2022-12-14T03:57:18.491Z,6.60
2022-12-14T03:59:30.552Z,4.90
2022-12-14T04:01:45.352Z,7.07
2022-12-14T04:03:54.727Z,8.32
2022-12-14T04:06:04.438Z,5.05
2022-12-14T04:08:12.936Z,3.25
2022-12-14T04:10:43.347Z,7.93
2022-12-14T04:13:04.644Z,5.45
2022-12-14T04:15:31.855Z,6.68
2022-12-14T04:18:06.710Z,8.32
2022-12-14T04:20:17.004Z,7.53
2022-12-14T04:22:24.195Z,4.75
2022-12-14T04:24:51.669Z,6.40
2022-12-14T04:26:58.499Z,6.03
2022-12-14T04:29:25.560Z,7.05
2022-12-14T04:31:32.111Z,7.18
2022-12-14T04:33:50.077Z,6.05
2022-12-14T04:35:55.076Z,4.80
2022-12-14T04:38:02.285Z,3.53
2022-12-14T04:40:09.956Z,5.18
2022-12-14T04:42:16.734Z,2.78
2022-12-14T04:44:25.138Z,2.78
2022-12-14T04:46:37.560Z,3.20
2022-12-14T04:48:55.720Z,1.33
2022-12-14T04:51:10.920Z,2.10
2022-12-14T04:53:19.974Z,3.33
2022-12-14T04:55:29.613Z,2.60
2022-12-14T04:57:40.141Z,1.60
2022-12-14T04:59:44.286Z,2.00
2022-12-14T05:01:57.280Z,2.58
2022-12-14T05:04:12.306Z,4.00
2022-12-14T05:06:22.268Z,2.80
2022-12-14T05:08:38.970Z,2.45
2022-12-14T05:10:46.012Z,4.25
2022-12-14T05:12:57.095Z,3.45
2022-12-14T05:15:07.115Z,7.30
2022-12-14T05:17:10.711Z,3.63
2022-12-14T05:19:16.763Z,2.63
2022-12-14T05:21:33.969Z,3.70
2022-12-14T05:23:37.219Z,1.35
2022-12-14T05:25:40.623Z,2.67
2022-12-14T05:27:43.840Z,2.13
2022-12-14T05:29:47.146Z,3.92
2022-12-14T05:31:51.458Z,2.83
2022-12-14T05:33:54.702Z,3.13
2022-12-14T05:35:59.326Z,5.68
2022-12-14T05:38:02.565Z,1.52
2022-12-14T05:40:06.822Z,6.47
2022-12-14T05:42:10.038Z,2.38
2022-12-14T05:44:13.383Z,5.10
2022-12-14T05:46:16.759Z,4.78
2022-12-14T05:48:20.030Z,4.75
2022-12-14T05:50:23.281Z,4.18
2022-12-14T05:52:28.421Z,2.33
2022-12-14T05:54:31.652Z,1.48
2022-12-14T05:56:34.893Z,2.58
2022-12-14T05:58:38.879Z,3.40
2022-12-14T06:00:42.124Z,4.40
2022-12-14T06:02:45.485Z,5.30
2022-12-14T06:04:48.877Z,8.75
2022-12-14T06:06:52.279Z,2.88
2022-12-14T06:08:56.882Z,12.18
2022-12-14T06:11:03.929Z,7.57
2022-12-14T06:13:07.202Z,0.85
2022-12-14T06:15:11.266Z,3.30
2022-12-14T06:17:14.485Z,6.30
2022-12-14T06:19:17.787Z,5.80
2022-12-14T06:21:22.812Z,2.42
2022-12-14T06:23:26.358Z,1.70
2022-12-14T06:25:31.315Z,6.20
2022-12-14T06:27:34.553Z,2.17
2022-12-14T06:29:37.977Z,1.45
2022-12-14T06:31:41.321Z,4.07
2022-12-14T06:33:45.727Z,1.40
2022-12-14T06:35:49.372Z,5.85
2022-12-14T06:37:53.532Z,3.67
2022-12-14T06:39:57.252Z,8.35
2022-12-14T06:42:02.179Z,3.55
2022-12-14T06:44:07.292Z,1.20
2022-12-14T06:46:15.603Z,5.15
2022-12-14T06:48:19.476Z,6.35
2022-12-14T06:50:23.099Z,5.85
2022-12-14T06:52:27.521Z,1.42
2022-12-14T06:54:31.743Z,1.63
2022-12-14T06:56:35.570Z,9.43
2022-12-14T06:58:40.909Z,6.38
2022-12-14T07:00:44.708Z,1.42
2022-12-14T07:02:48.976Z,11.00
2022-12-14T07:04:52.715Z,5.43
2022-12-14T07:06:56.296Z,6.93
2022-12-14T07:09:02.110Z,4.68
2022-12-14T07:11:07.146Z,3.45
2022-12-14T07:13:11.084Z,4.00
2022-12-14T07:15:16.111Z,1.70
2022-12-14T07:17:20.253Z,1.13
2022-12-14T07:19:23.881Z,4.13
2022-12-14T07:21:28.035Z,3.15
2022-12-14T07:23:33.512Z,3.17
2022-12-14T07:25:37.446Z,8.23
2022-12-14T07:27:40.980Z,3.03
2022-12-14T07:29:45.059Z,1.80
2022-12-14T07:31:50.212Z,3.28
2022-12-14T07:33:54.655Z,5.15
2022-12-14T07:36:03.834Z,4.70
2022-12-14T07:38:07.532Z,3.08
2022-12-14T07:40:12.265Z,7.50
2022-12-14T07:42:15.799Z,1.65
2022-12-14T07:44:23.727Z,3.70
2022-12-14T07:46:29.318Z,7.65
2022-12-14T07:48:34.396Z,3.50
2022-12-14T07:50:38.120Z,3.47
2022-12-14T07:52:41.965Z,4.65
2022-12-14T07:54:45.590Z,8.38
2022-12-14T07:56:49.737Z,7.32
2022-12-14T07:58:54.112Z,1.60
2022-12-14T08:00:57.833Z,8.70
2022-12-14T08:03:01.442Z,7.85
2022-12-14T08:05:12.357Z,2.88
2022-12-14T08:07:16.345Z,9.75
2022-12-14T08:09:21.100Z,6.78
2022-12-14T08:11:25.894Z,1.33
2022-12-14T08:13:31.826Z,3.25
2022-12-14T08:15:39.953Z,4.80
2022-12-14T08:17:43.930Z,2.25
2022-12-14T08:19:47.488Z,3.97
2022-12-14T08:21:52.610Z,6.05
2022-12-14T08:23:57.364Z,6.82
2022-12-14T08:26:02.411Z,1.52
2022-12-14T08:28:06.240Z,6.93
2022-12-14T08:30:11.256Z,4.32
2022-12-14T08:32:14.854Z,3.08
2022-12-14T08:34:22.971Z,3.92
2022-12-14T08:36:28.354Z,6.45
2022-12-14T08:38:33.273Z,2.15
2022-12-14T08:40:37.031Z,2.22
2022-12-14T08:42:41.065Z,5.40
2022-12-14T08:44:44.661Z,4.75
2022-12-14T08:46:48.420Z,6.07
2022-12-14T08:48:53.367Z,3.63
2022-12-14T08:51:02.177Z,5.80
2022-12-14T08:53:06.314Z,1.75
2022-12-14T08:55:11.529Z,6.15
2022-12-14T08:57:16.336Z,5.60
2022-12-14T08:59:52.173Z,7.18
2022-12-14T09:01:45.836Z,5.40
2022-12-14T09:03:50.124Z,6.30
2022-12-14T09:05:54.628Z,1.17
2022-12-14T09:07:59.246Z,10.38
2022-12-14T09:10:03.467Z,4.53
2022-12-14T09:12:09.370Z,4.60
2022-12-14T09:14:13.040Z,1.08
2022-12-14T09:16:18.482Z,5.60
2022-12-14T09:18:22.100Z,4.15
2022-12-14T09:20:25.691Z,5.85
2022-12-14T09:22:30.679Z,6.60
2022-12-14T09:24:34.681Z,7.68
2022-12-14T09:26:38.270Z,15.90
2022-12-14T09:28:46.565Z,5.00
2022-12-14T09:30:54.988Z,6.07
2022-12-14T09:32:58.798Z,5.70
2022-12-14T09:35:02.458Z,8.27
2022-12-14T09:37:07.930Z,8.18
2022-12-14T09:39:15.059Z,6.93
2022-12-14T09:41:27.042Z,8.07
2022-12-14T09:43:40.764Z,5.72
2022-12-14T09:45:52.217Z,7.88
2022-12-14T09:48:02.429Z,7.35
2022-12-14T09:50:13.139Z,11.35
2022-12-14T09:52:20.196Z,7.22
2022-12-14T09:54:28.160Z,8.55
2022-12-14T09:56:32.883Z,5.07
2022-12-14T09:58:37.682Z,5.18
2022-12-14T10:00:51.369Z,7.80
2022-12-14T10:03:21.466Z,5.88
2022-12-14T10:05:50.017Z,7.55
2022-12-14T10:08:04.282Z,7.25
2022-12-14T10:10:19.122Z,3.65
2022-12-14T10:12:40.407Z,5.15
2022-12-14T10:14:58.381Z,4.43
2022-12-14T10:17:11.860Z,3.85
2022-12-14T10:19:29.394Z,2.60
2022-12-14T10:21:44.806Z,8.77
2022-12-14T10:23:56.546Z,4.10
2022-12-14T10:26:08.065Z,6.07
2022-12-14T10:28:19.054Z,8.68
2022-12-14T10:30:23.172Z,7.65
2022-12-14T10:32:33.579Z,6.13
2022-12-14T10:34:42.410Z,4.60
2022-12-14T10:36:54.227Z,2.85
2022-12-14T10:39:00.474Z,5.30
2022-12-14T10:41:17.321Z,4.30
2022-12-14T10:43:36.500Z,6.80
2022-12-14T10:45:47.150Z,3.28
2022-12-14T10:47:54.112Z,5.32
2022-12-14T10:50:05.419Z,7.38
2022-12-14T10:52:17.079Z,5.05
2022-12-14T10:54:28.336Z,3.42
2022-12-14T10:56:35.192Z,5.57
2022-12-14T10:58:38.683Z,3.38
2022-12-14T11:00:42.479Z,5.60
2022-12-14T11:02:50.257Z,8.48
2022-12-14T11:04:55.440Z,4.53
2022-12-14T11:07:04.480Z,6.80
2022-12-14T11:09:21.805Z,11.23
2022-12-14T11:11:27.419Z,5.72
2022-12-14T11:13:31.280Z,5.13
2022-12-14T11:15:38.010Z,5.07
2022-12-14T11:17:43.141Z,8.18
2022-12-14T11:20:04.057Z,5.72
2022-12-14T11:22:21.737Z,6.05
2022-12-14T11:24:27.785Z,9.73
2022-12-14T11:26:35.684Z,11.52
2022-12-14T11:28:49.966Z,9.80
2022-12-14T11:30:57.826Z,8.35
2022-12-14T11:33:01.508Z,7.10
2022-12-14T11:35:05.568Z,13.57
2022-12-14T11:37:23.752Z,6.43
2022-12-14T11:39:27.460Z,8.98
2022-12-14T11:41:35.844Z,8.82
2022-12-14T11:43:39.482Z,5.53
2022-12-14T11:45:51.711Z,6.43
2022-12-14T11:48:12.552Z,6.75
2022-12-14T11:50:25.355Z,6.22
2022-12-14T11:52:42.854Z,8.15
2022-12-14T11:54:50.250Z,8.73
2022-12-14T11:57:00.498Z,12.68
2022-12-14T11:59:04.100Z,6.78
2022-12-14T12:01:13.564Z,8.40
2022-12-14T12:03:23.556Z,8.68
2022-12-14T12:05:28.993Z,9.00
2022-12-14T12:07:36.239Z,5.32
2022-12-14T12:09:43.154Z,4.72
2022-12-14T12:11:47.511Z,5.32
2022-12-14T12:13:54.388Z,10.10
2022-12-14T12:16:02.358Z,5.88
2022-12-14T12:18:09.941Z,9.65
2022-12-14T12:20:24.687Z,6.30
2022-12-14T12:22:31.567Z,10.32
2022-12-14T12:25:08.190Z,8.23
2022-12-14T12:27:12.254Z,5.00
2022-12-14T12:29:22.684Z,5.65
2022-12-14T12:31:32.954Z,4.00
2022-12-14T12:33:44.829Z,6.28
2022-12-14T12:35:53.596Z,8.57
2022-12-14T12:38:01.569Z,5.90
2022-12-14T12:40:16.210Z,5.65
2022-12-14T12:42:26.072Z,2.35
2022-12-14T12:44:44.848Z,5.38
2022-12-14T12:47:40.086Z,6.13
2022-12-14T12:49:37.524Z,4.93
2022-12-14T12:51:47.805Z,2.15
2022-12-14T12:53:57.199Z,2.75
2022-12-14T12:56:09.194Z,7.63
2022-12-14T12:58:22.929Z,3.70
2022-12-14T13:00:28.581Z,6.43
2022-12-14T13:02:35.443Z,2.15
2022-12-14T13:04:47.798Z,1.40
2022-12-14T13:06:59.091Z,1.40
2022-12-14T13:09:11.723Z,7.45
2022-12-14T13:11:26.489Z,5.55
2022-12-14T13:13:34.828Z,8.52
2022-12-14T13:15:43.494Z,7.13
2022-12-14T13:17:51.010Z,2.30
2022-12-14T13:19:57.385Z,1.73
2022-12-14T13:22:06.389Z,3.55
2022-12-14T13:24:17.933Z,2.67
2022-12-14T13:27:00.576Z,3.85
2022-12-14T13:29:09.372Z,2.00
2022-12-14T13:31:22.372Z,6.50
2022-12-14T13:33:59.732Z,4.82
2022-12-14T13:36:33.928Z,5.13
2022-12-14T13:38:56.487Z,7.75
2022-12-14T13:41:20.924Z,2.92
2022-12-14T13:43:40.458Z,5.57
2022-12-14T13:45:49.676Z,4.22
2022-12-14T13:47:56.892Z,4.63
2022-12-14T13:52:37.551Z,1.70
2022-12-14T13:54:41.602Z,6.57
2022-12-14T13:56:45.959Z,4.60
2022-12-14T13:58:53.935Z,3.13
2022-12-14T14:01:04.008Z,7.07
2022-12-14T14:03:09.998Z,4.43
2022-12-14T14:05:39.989Z,6.78
2022-12-14T14:07:53.809Z,2.05
2022-12-14T14:10:04.950Z,2.58
2022-12-14T14:12:53.393Z,8.07
2022-12-14T14:15:04.977Z,4.50
2022-12-14T14:17:14.685Z,4.82
2022-12-14T14:19:24.188Z,11.60
2022-12-14T14:21:58.920Z,7.25
2022-12-14T14:24:22.116Z,2.30
2022-12-14T14:26:30.819Z,5.18
2022-12-14T14:28:34.997Z,3.42
2022-12-14T14:30:44.406Z,1.48
2022-12-14T14:32:48.527Z,7.45
2022-12-14T14:34:53.091Z,1.73
2022-12-14T14:36:57.001Z,6.50
2022-12-14T14:39:01.991Z,2.38
2022-12-14T14:41:16.628Z,4.00
2022-12-14T14:43:29.157Z,4.72
2022-12-14T14:45:38.783Z,12.57
2022-12-14T14:47:44.794Z,9.82
2022-12-14T14:49:54.588Z,8.02
2022-12-14T14:51:59.400Z,7.00
2022-12-14T14:55:11.082Z,3.30
2022-12-14T14:57:01.117Z,17.50
2022-12-14T14:59:51.212Z,7.18
2022-12-14T15:01:58.312Z,3.10
2022-12-14T15:04:07.958Z,7.68
2022-12-14T15:06:15.865Z,4.55
2022-12-14T15:08:24.102Z,2.72
2022-12-14T15:10:32.600Z,11.60
2022-12-14T15:12:43.166Z,2.70
2022-12-14T15:14:51.893Z,5.00
2022-12-14T15:16:55.701Z,4.70
2022-12-14T15:19:23.592Z,5.47
2022-12-14T15:21:27.163Z,4.55
2022-12-14T15:23:36.969Z,4.20
2022-12-14T15:25:40.470Z,9.43
2022-12-14T15:27:43.997Z,10.43
2022-12-14T15:29:49.229Z,11.13
2022-12-14T15:31:59.978Z,15.38
2022-12-14T15:34:04.390Z,13.52
2022-12-14T15:36:15.635Z,15.18
2022-12-14T15:38:24.369Z,14.43
2022-12-14T15:40:30.348Z,12.20
2022-12-14T15:42:33.709Z,11.77
2022-12-14T15:44:37.148Z,12.48
2022-12-14T15:46:40.823Z,12.45
2022-12-14T15:48:44.369Z,17.15
2022-12-14T15:50:50.960Z,10.98
2022-12-14T15:53:00.243Z,9.27
2022-12-14T15:55:03.527Z,12.45
2022-12-14T15:57:14.432Z,13.40
2022-12-14T15:59:21.564Z,12.50
2022-12-14T16:01:29.212Z,13.18
2022-12-14T16:03:37.850Z,13.52
2022-12-14T16:05:41.426Z,11.25
2022-12-14T16:07:48.815Z,17.13
2022-12-14T16:09:58.337Z,8.65
2022-12-14T16:12:06.007Z,10.68
2022-12-14T16:14:19.615Z,9.38
2022-12-14T16:18:26.598Z,12.50
2022-12-14T16:20:31.996Z,16.27
2022-12-14T16:22:39.465Z,14.70
2022-12-14T16:25:01.616Z,14.30
2022-12-14T16:27:06.290Z,12.68
2022-12-14T16:29:19.528Z,16.83
2022-12-14T16:31:25.217Z,11.45
2022-12-14T16:33:30.324Z,15.32
2022-12-14T16:35:36.970Z,14.07
2022-12-14T16:37:40.315Z,26.27
2022-12-14T16:39:47.726Z,20.80
2022-12-14T16:41:58.562Z,22.48
2022-12-14T16:44:02.675Z,15.10
2022-12-14T16:46:20.804Z,15.85
2022-12-14T16:48:24.860Z,19.60
2022-12-14T16:53:15.289Z,18.90
2022-12-14T16:55:20.114Z,19.45
2022-12-14T16:57:25.892Z,17.92
2022-12-14T16:59:38.184Z,19.35
2022-12-14T17:01:46.169Z,25.80
2022-12-14T17:04:00.285Z,27.85
2022-12-14T17:06:06.857Z,20.50
2022-12-14T17:08:12.783Z,11.32
2022-12-14T17:10:17.791Z,13.90
2022-12-14T17:12:21.416Z,25.60
2022-12-14T17:14:26.547Z,11.23
2022-12-14T17:16:30.220Z,52.83
2022-12-14T17:18:36.135Z,14.65
2022-12-14T17:20:40.320Z,43.50
2022-12-14T17:22:49.365Z,24.50
2022-12-14T17:24:53.429Z,15.15
2022-12-14T17:26:57.607Z,18.42
2022-12-14T17:29:01.207Z,19.88
2022-12-14T17:31:06.572Z,26.23
2022-12-14T17:33:10.892Z,16.77
2022-12-14T17:35:18.496Z,22.77
2022-12-14T17:37:24.317Z,42.38
2022-12-14T17:39:28.877Z,16.38
2022-12-14T17:41:32.615Z,14.38
2022-12-14T17:43:36.922Z,17.23
2022-12-14T17:45:41.537Z,16.27
2022-12-14T17:47:46.602Z,34.22
2022-12-14T17:49:50.151Z,14.70
2022-12-14T17:51:53.933Z,15.25
2022-12-14T17:53:59.629Z,11.50
2022-12-14T17:56:03.211Z,14.18
2022-12-14T17:58:06.999Z,12.48
2022-12-14T18:00:33.625Z,14.40
2022-12-14T18:02:38.092Z,14.00
2022-12-14T18:04:43.188Z,15.60
2022-12-14T18:06:46.900Z,18.50
2022-12-14T18:08:50.505Z,13.05
2022-12-14T18:10:57.721Z,17.63
2022-12-14T18:13:02.511Z,14.90
2022-12-14T18:15:11.948Z,19.95
2022-12-14T18:17:16.286Z,16.55
2022-12-14T18:19:20.023Z,19.30
2022-12-14T18:21:28.072Z,23.73
2022-12-14T18:23:33.276Z,17.90
2022-12-14T18:25:38.524Z,15.80
2022-12-14T18:27:42.635Z,21.92
2022-12-14T18:29:46.383Z,16.70
2022-12-14T18:31:50.502Z,18.05
2022-12-14T18:33:54.230Z,20.00
2022-12-14T18:35:58.659Z,20.48
2022-12-14T18:38:03.812Z,18.95
2022-12-14T18:40:08.970Z,16.98
2022-12-14T18:42:14.543Z,21.10
2022-12-14T18:44:22.463Z,18.67
2022-12-14T18:46:27.029Z,15.32
2022-12-14T18:48:30.547Z,15.07
2022-12-14T18:50:37.256Z,14.45
2022-12-14T18:52:45.064Z,16.67
2022-12-14T18:54:52.005Z,17.50
2022-12-14T18:56:55.789Z,21.55
2022-12-14T18:59:00.687Z,22.48
2022-12-14T19:01:04.110Z,23.83
2022-12-14T19:03:08.255Z,19.20
2022-12-14T19:05:12.636Z,21.25
2022-12-14T19:07:16.989Z,18.23
2022-12-14T19:09:20.943Z,16.75
2022-12-14T19:11:31.137Z,19.52
2022-12-14T19:13:34.615Z,20.63
2022-12-14T19:15:38.659Z,15.57
2022-12-14T19:17:42.355Z,14.75
2022-12-14T19:19:46.003Z,20.40
2022-12-14T19:21:49.715Z,16.95
2022-12-14T19:23:53.734Z,17.67
2022-12-14T19:25:57.357Z,20.10
2022-12-14T19:30:27.349Z,24.92
2022-12-14T19:32:30.788Z,24.73
2022-12-14T19:34:34.357Z,24.17
2022-12-14T19:36:37.919Z,27.20
2022-12-14T19:38:41.425Z,30.27
2022-12-14T19:40:46.616Z,30.00
2022-12-14T19:42:50.632Z,33.38
2022-12-14T19:44:55.854Z,42.78
2022-12-14T19:46:59.582Z,38.55
2022-12-14T19:49:03.715Z,37.20
2022-12-14T19:51:08.882Z,31.70
2022-12-14T19:53:12.608Z,36.58
2022-12-14T19:55:16.330Z,38.08
2022-12-14T19:57:20.554Z,35.70
2022-12-14T19:59:24.639Z,44.53
2022-12-14T20:01:32.827Z,37.60
2022-12-14T20:03:37.324Z,46.60
2022-12-14T20:05:41.518Z,43.10
2022-12-14T20:07:45.319Z,43.83
2022-12-14T20:09:49.485Z,37.88
2022-12-14T20:11:53.548Z,38.00
2022-12-14T20:14:02.953Z,35.10
2022-12-14T20:16:07.715Z,38.10
2022-12-14T20:18:13.223Z,40.03
2022-12-14T20:20:17.092Z,45.75
2022-12-14T20:22:20.791Z,42.67
2022-12-14T20:24:24.253Z,42.30
2022-12-14T20:26:28.657Z,42.97
2022-12-14T20:28:32.391Z,43.20
2022-12-14T20:30:36.187Z,45.08
2022-12-14T20:32:41.201Z,38.22
2022-12-14T20:34:46.236Z,37.45
2022-12-14T20:36:49.886Z,39.50
2022-12-14T20:38:56.171Z,37.70
2022-12-14T20:41:06.108Z,36.10
2022-12-14T20:43:10.005Z,35.38
2022-12-14T20:45:13.493Z,39.08
2022-12-14T20:47:17.294Z,35.20
2022-12-14T20:49:23.521Z,34.10
2022-12-14T20:51:30.349Z,34.80
2022-12-14T20:53:34.103Z,34.55
2022-12-14T20:55:37.839Z,44.35
2022-12-14T20:57:41.568Z,39.72
2022-12-14T20:59:45.132Z,34.08
2022-12-14T21:01:55.059Z,35.15
2022-12-14T21:04:02.310Z,35.20
2022-12-14T21:06:06.068Z,47.70
2022-12-14T21:08:11.699Z,65.80
2022-12-14T21:10:15.298Z,135.43
2022-12-14T21:12:21.053Z,92.88
2022-12-14T21:14:26.914Z,59.30
2022-12-14T21:16:30.832Z,43.50
2022-12-14T21:18:34.374Z,38.97
2022-12-14T21:20:38.180Z,35.28
2022-12-14T21:22:41.798Z,33.47
2022-12-14T21:25:04.738Z,37.33
2022-12-14T21:27:10.271Z,33.10
2022-12-14T21:29:15.466Z,37.50
2022-12-14T21:31:19.197Z,36.45
2022-12-14T21:33:22.881Z,45.20
2022-12-14T21:35:26.504Z,40.33
2022-12-14T21:37:30.193Z,32.72
2022-12-14T21:39:33.858Z,35.95
2022-12-14T21:41:56.187Z,38.03
2022-12-14T21:44:00.712Z,39.00
2022-12-14T21:46:04.372Z,32.63
2022-12-14T21:48:07.984Z,34.55
2022-12-14T21:50:11.708Z,33.83
2022-12-14T21:52:19.083Z,34.42
2022-12-14T21:54:22.813Z,36.10
2022-12-14T21:56:45.544Z,42.72
2022-12-14T21:58:54.156Z,49.80
2022-12-14T22:00:57.853Z,51.05
2022-12-14T22:03:01.788Z,48.40
2022-12-14T22:05:05.805Z,41.28
2022-12-14T22:07:09.455Z,38.60
2022-12-14T22:09:13.113Z,32.80
2022-12-14T22:11:16.880Z,40.22
2022-12-14T22:13:20.496Z,39.70
2022-12-14T22:15:25.353Z,31.20
2022-12-14T22:17:29.064Z,30.05
2022-12-14T22:19:32.964Z,33.15
2022-12-14T22:21:39.419Z,30.10
2022-12-14T22:23:43.995Z,39.10
2022-12-14T22:25:51.214Z,47.60
2022-12-14T22:27:54.857Z,43.90
2022-12-14T22:29:58.365Z,33.10
2022-12-14T22:32:03.645Z,40.42
2022-12-14T22:34:09.077Z,31.83
2022-12-14T22:36:12.557Z,29.73
2022-12-14T22:38:16.181Z,28.83
2022-12-14T22:40:20.172Z,31.90
2022-12-14T22:42:23.967Z,26.98
2022-12-14T22:44:27.569Z,31.60
2022-12-14T22:46:32.034Z,31.88
2022-12-14T22:48:38.524Z,34.03
2022-12-14T22:50:42.181Z,35.42
2022-12-14T22:52:49.492Z,29.92
2022-12-14T22:54:54.343Z,26.85
2022-12-14T22:57:02.604Z,27.95
2022-12-14T22:59:10.741Z,39.45
2022-12-14T23:01:16.189Z,30.15
2022-12-14T23:03:19.968Z,35.42
2022-12-14T23:05:25.152Z,25.40
2022-12-14T23:07:28.682Z,46.25
2022-12-14T23:09:49.589Z,36.03
2022-12-14T23:12:11.918Z,173.98
2022-12-14T23:14:33.679Z,35.20
2022-12-14T23:16:54.868Z,33.47
2022-12-14T23:19:16.040Z,26.90
2022-12-14T23:21:38.665Z,31.73
2022-12-14T23:24:01.639Z,22.73
2022-12-14T23:26:23.200Z,22.90
2022-12-14T23:28:44.278Z,33.42
2022-12-14T23:31:11.497Z,24.92
2022-12-14T23:33:32.719Z,39.55
2022-12-14T23:35:53.689Z,30.05
2022-12-14T23:38:15.914Z,25.77
2022-12-14T23:40:37.142Z,30.52
2022-12-14T23:42:57.870Z,26.48
2022-12-14T23:45:18.930Z,21.60
2022-12-14T23:47:39.725Z,33.50
2022-12-14T23:50:00.725Z,29.38
2022-12-14T23:52:21.642Z,22.27
2022-12-14T23:54:44.021Z,23.92
2022-12-14T23:57:04.835Z,28.42
2022-12-14T23:59:31.603Z,31.90
